Time;durP1;ratioP1;P1;durP2;ratioP2;P2;SDS_P1;SDS_P2;PMS_P1;PMS_P2;Temp;Humidity;BMP_temperature;BMP_pressure;BME280_temperature;BME280_humidity;BME280_pressure;Samples;Min_cycle;Max_cycle;Signal;HPM_P1;HPM_P2
2023/06/10 00:01:23;;;;;;;14.70;8.00;;;12.10;92.30;;;;;;5013933;28;20216;-86
2023/06/10 00:03:50;;;;;;;16.10;8.33;;;12.00;92.40;;;;;;5013967;28;20186;-86
2023/06/10 00:06:15;;;;;;;19.20;9.33;;;11.90;92.40;;;;;;5012602;28;20177;-86
2023/06/10 00:08:42;;;;;;;19.47;9.30;;;11.90;92.50;;;;;;5012565;28;20204;-86
2023/06/10 00:11:07;;;;;;;16.00;8.77;;;11.80;92.70;;;;;;5013759;28;20200;-87
2023/06/10 00:13:33;;;;;;;14.80;9.07;;;11.90;92.80;;;;;;5013185;28;20213;-87
2023/06/10 00:15:58;;;;;;;16.00;9.67;;;11.90;92.90;;;;;;5013693;28;20578;-87
2023/06/10 00:18:26;;;;;;;16.53;8.93;;;11.90;93.00;;;;;;5013763;28;20685;-87
2023/06/10 00:20:54;;;;;;;19.70;9.23;;;11.90;93.10;;;;;;5013757;28;20169;-87
2023/06/10 00:23:21;;;;;;;20.20;9.03;;;11.90;93.20;;;;;;5013733;28;20204;-87
2023/06/10 00:25:46;;;;;;;18.53;10.70;;;11.90;93.20;;;;;;5013552;28;20169;-87
2023/06/10 00:28:13;;;;;;;17.40;10.40;;;11.90;93.40;;;;;;5013821;28;20646;-87
2023/06/10 00:30:38;;;;;;;22.10;9.97;;;11.90;93.40;;;;;;5013865;28;20165;-87
2023/06/10 00:33:04;;;;;;;19.03;9.03;;;11.90;93.50;;;;;;5013402;28;20280;-87
2023/06/10 00:35:30;;;;;;;15.73;9.97;;;11.90;93.60;;;;;;5013612;28;20533;-87
2023/06/10 00:37:55;;;;;;;17.30;9.97;;;11.90;93.60;;;;;;5012636;28;20209;-87
2023/06/10 00:40:21;;;;;;;24.43;9.90;;;11.90;93.70;;;;;;5013240;28;20226;-86
2023/06/10 00:42:46;;;;;;;15.53;10.67;;;11.90;93.80;;;;;;5013397;28;20197;-87
2023/06/10 00:45:12;;;;;;;21.57;11.17;;;12.00;93.90;;;;;;5012165;28;20177;-87
2023/06/10 00:47:38;;;;;;;19.47;10.90;;;12.10;94.00;;;;;;5013356;28;20177;-87
2023/06/10 00:50:05;;;;;;;18.00;11.03;;;12.10;94.00;;;;;;5013430;28;20185;-87
2023/06/10 00:52:31;;;;;;;18.93;11.43;;;12.10;94.10;;;;;;5013246;28;20231;-87
2023/06/10 00:54:56;;;;;;;18.27;10.83;;;12.10;94.10;;;;;;5013338;28;20217;-87
2023/06/10 00:57:22;;;;;;;19.83;10.63;;;12.10;94.10;;;;;;5012079;28;20177;-87
2023/06/10 00:59:49;;;;;;;19.07;11.47;;;12.10;94.20;;;;;;5012083;28;20243;-87
2023/06/10 01:02:18;;;;;;;18.37;11.13;;;12.00;94.20;;;;;;5013243;28;20280;-87
2023/06/10 01:04:43;;;;;;;18.00;10.63;;;12.10;94.20;;;;;;5013242;28;20181;-88
2023/06/10 01:07:56;;;;;;;26.33;11.33;;;12.10;94.20;;;;;;5012022;28;20177;-87
2023/06/10 01:11:00;;;;;;;20.57;11.23;;;12.10;94.20;;;;;;5011283;28;20585;-87
2023/06/10 01:13:28;;;;;;;21.03;11.27;;;12.10;94.30;;;;;;4991870;28;20371;-87
2023/06/10 01:15:56;;;;;;;19.27;10.60;;;12.10;94.30;;;;;;5012211;28;20320;-87
2023/06/10 01:18:22;;;;;;;19.00;10.47;;;12.10;94.30;;;;;;5011854;28;20212;-87
2023/06/10 01:20:48;;;;;;;18.93;10.77;;;12.10;94.20;;;;;;5011839;28;20174;-87
2023/06/10 01:23:15;;;;;;;24.63;11.63;;;12.00;94.20;;;;;;5012961;28;20185;-87
2023/06/10 01:25:48;;;;;;;21.17;11.13;;;12.00;94.20;;;;;;5012963;28;20169;-87
2023/06/10 01:28:31;;;;;;;26.60;11.80;;;11.90;94.20;;;;;;5011846;28;20202;-87
2023/06/10 01:31:33;;;;;;;14.80;10.40;;;11.80;94.10;;;;;;5011722;28;20166;-87
2023/06/10 01:34:00;;;;;;;21.53;10.67;;;11.70;94.10;;;;;;5011763;28;20180;-87
2023/06/10 01:36:27;;;;;;;22.20;10.90;;;11.70;94.10;;;;;;5012990;28;20178;-87
2023/06/10 01:38:53;;;;;;;16.10;11.00;;;11.70;94.00;;;;;;5012833;28;20251;-87
2023/06/10 01:41:21;;;;;;;23.50;11.00;;;11.60;94.00;;;;;;5012917;28;20537;-87
2023/06/10 01:43:47;;;;;;;16.67;10.67;;;11.60;94.00;;;;;;5012877;28;20186;-87
2023/06/10 01:46:13;;;;;;;20.97;11.50;;;11.60;94.00;;;;;;5012986;28;20189;-87
2023/06/10 01:48:39;;;;;;;15.90;10.50;;;11.60;94.10;;;;;;5013223;28;20491;-87
2023/06/10 01:51:05;;;;;;;23.00;10.53;;;11.60;94.00;;;;;;5012823;28;20180;-87
2023/06/10 01:53:30;;;;;;;17.43;10.93;;;11.50;94.00;;;;;;5013934;28;20288;-87
2023/06/10 01:55:56;;;;;;;17.17;11.03;;;11.50;94.00;;;;;;5016320;28;20173;-87
2023/06/10 01:58:22;;;;;;;18.10;10.77;;;11.50;94.10;;;;;;5014910;28;20201;-87
2023/06/10 02:00:47;;;;;;;17.87;10.97;;;11.40;94.00;;;;;;5016199;28;20185;-87
2023/06/10 02:03:13;;;;;;;19.00;11.43;;;11.40;94.00;;;;;;5014842;28;20197;-87
2023/06/10 02:05:39;;;;;;;15.23;11.37;;;11.30;94.00;;;;;;5014969;28;20181;-87
2023/06/10 02:08:05;;;;;;;18.47;11.10;;;11.30;94.00;;;;;;5016589;28;20170;-87
2023/06/10 02:10:30;;;;;;;20.07;11.67;;;11.20;94.00;;;;;;5014903;28;20243;-87
2023/06/10 02:12:56;;;;;;;17.70;11.30;;;11.20;94.00;;;;;;5015964;28;20582;-87
2023/06/10 02:15:21;;;;;;;19.03;10.87;;;11.20;94.10;;;;;;5016330;28;20178;-87
2023/06/10 02:17:49;;;;;;;19.73;11.77;;;11.10;94.00;;;;;;5014625;28;20189;-87
2023/06/10 02:20:14;;;;;;;18.03;11.50;;;11.10;94.00;;;;;;5014813;28;20170;-87
2023/06/10 02:22:40;;;;;;;18.87;11.57;;;11.10;94.00;;;;;;5014598;28;20575;-87
2023/06/10 02:25:06;;;;;;;19.53;12.37;;;11.00;94.10;;;;;;5014530;28;20324;-87
2023/06/10 02:27:32;;;;;;;22.83;12.73;;;11.00;94.10;;;;;;5014751;28;20546;-87
2023/06/10 02:29:57;;;;;;;22.07;12.50;;;11.00;94.10;;;;;;5015957;28;20173;-87
2023/06/10 02:32:23;;;;;;;20.70;12.70;;;11.00;94.20;;;;;;5015922;28;20276;-87
2023/06/10 02:34:49;;;;;;;21.83;11.80;;;11.10;94.30;;;;;;5015548;28;20201;-87
2023/06/10 02:37:18;;;;;;;18.70;11.93;;;11.20;94.20;;;;;;5014365;28;20708;-87
2023/06/10 02:39:43;;;;;;;19.90;11.50;;;11.10;94.20;;;;;;5015442;28;20231;-87
2023/06/10 02:42:10;;;;;;;18.27;12.07;;;11.00;94.20;;;;;;5014091;28;20193;-87
2023/06/10 02:44:35;;;;;;;21.63;11.50;;;11.00;94.20;;;;;;5015687;28;20174;-87
2023/06/10 02:47:01;;;;;;;20.80;12.30;;;10.90;94.10;;;;;;5014208;28;20196;-87
2023/06/10 02:49:29;;;;;;;18.50;12.00;;;10.90;94.10;;;;;;5014170;28;20248;-87
2023/06/10 02:51:56;;;;;;;27.43;12.77;;;10.90;94.10;;;;;;5015209;28;20197;-87
2023/06/10 02:54:22;;;;;;;19.93;10.97;;;10.90;94.20;;;;;;5015402;28;20291;-87
2023/06/10 02:56:48;;;;;;;19.50;11.40;;;10.80;94.20;;;;;;5015440;28;20209;-87
2023/06/10 02:59:14;;;;;;;18.87;12.80;;;10.90;94.30;;;;;;5015549;28;20699;-87
2023/06/10 03:01:40;;;;;;;21.17;12.87;;;10.90;94.30;;;;;;5013949;28;20219;-86
2023/06/10 03:04:06;;;;;;;23.53;13.73;;;10.80;94.30;;;;;;5013578;28;20188;-87
2023/06/10 03:06:33;;;;;;;17.70;12.10;;;10.80;94.30;;;;;;5015197;28;20201;-87
2023/06/10 03:09:00;;;;;;;25.83;12.17;;;10.80;94.40;;;;;;5013825;28;20563;-87
2023/06/10 03:11:25;;;;;;;23.77;12.83;;;10.80;94.40;;;;;;5014932;28;20190;-87
2023/06/10 03:13:52;;;;;;;21.07;12.97;;;10.80;94.40;;;;;;5013873;28;20220;-87
2023/06/10 03:16:18;;;;;;;21.17;13.10;;;10.70;94.50;;;;;;5013764;28;20181;-87
2023/06/10 03:18:43;;;;;;;18.97;13.20;;;10.80;94.50;;;;;;5013723;28;20225;-87
2023/06/10 03:21:09;;;;;;;23.43;13.53;;;10.80;94.60;;;;;;5013540;28;20549;-87
2023/06/10 03:23:35;;;;;;;19.10;13.50;;;11.00;94.60;;;;;;5015115;28;20205;-87
2023/06/10 03:26:00;;;;;;;28.07;13.83;;;11.00;94.60;;;;;;5014698;28;20171;-87
2023/06/10 03:28:26;;;;;;;29.37;14.33;;;11.00;94.60;;;;;;5014702;28;20170;-87
2023/06/10 03:30:51;;;;;;;24.87;12.50;;;11.10;94.60;;;;;;5013187;28;20224;-87
2023/06/10 03:33:17;;;;;;;20.53;14.03;;;11.10;94.60;;;;;;5013674;28;20632;-87
2023/06/10 03:35:43;;;;;;;21.57;14.33;;;11.10;94.60;;;;;;5014815;28;20209;-87
2023/06/10 03:38:08;;;;;;;17.67;12.43;;;11.20;94.60;;;;;;5013247;28;20205;-87
2023/06/10 03:40:34;;;;;;;21.03;13.23;;;11.20;94.50;;;;;;5014499;28;20260;-87
2023/06/10 03:43:00;;;;;;;16.83;12.60;;;11.30;94.40;;;;;;5013088;28;20255;-87
2023/06/10 03:45:28;;;;;;;19.23;12.07;;;11.30;94.20;;;;;;5013068;28;20182;-87
2023/06/10 03:47:53;;;;;;;24.43;12.30;;;11.40;94.20;;;;;;5013050;28;20558;-87
2023/06/10 03:50:19;;;;;;;22.60;12.67;;;11.50;94.10;;;;;;5014153;28;20180;-87
2023/06/10 03:52:45;;;;;;;14.07;12.13;;;11.60;94.10;;;;;;5012854;28;20197;-87
2023/06/10 03:55:13;;;;;;;19.73;12.80;;;11.70;94.00;;;;;;5012919;28;20197;-87
2023/06/10 03:57:39;;;;;;;18.13;12.57;;;11.90;94.00;;;;;;5014039;28;20162;-87
2023/06/10 04:00:11;;;;;;;21.33;12.17;;;12.00;94.00;;;;;;5013921;28;20180;-87
2023/06/10 04:02:36;;;;;;;19.27;11.67;;;12.20;93.90;;;;;;5014197;28;20602;-87
2023/06/10 04:05:02;;;;;;;19.13;12.53;;;12.30;93.90;;;;;;5012615;28;20205;-87
2023/06/10 04:07:28;;;;;;;19.63;12.47;;;12.40;93.70;;;;;;5013936;28;20178;-87
2023/06/10 04:09:53;;;;;;;22.03;11.83;;;12.50;93.60;;;;;;5012660;28;20272;-87
2023/06/10 04:12:19;;;;;;;19.13;12.67;;;12.50;93.40;;;;;;5013843;28;20638;-87
2023/06/10 04:14:44;;;;;;;19.10;12.80;;;12.50;93.30;;;;;;5013437;28;20197;-87
2023/06/10 04:17:10;;;;;;;19.83;11.93;;;12.50;93.10;;;;;;5012222;28;20170;-87
2023/06/10 04:19:36;;;;;;;17.70;12.00;;;12.60;93.10;;;;;;5012402;28;20275;-87
2023/06/10 04:22:05;;;;;;;18.97;11.83;;;12.70;93.10;;;;;;5012378;28;20686;-87
2023/06/10 04:24:30;;;;;;;20.03;11.70;;;12.80;93.00;;;;;;5012356;28;20556;-87
2023/06/10 04:26:56;;;;;;;15.17;12.53;;;12.80;92.90;;;;;;5012417;28;20177;-87
2023/06/10 04:29:21;;;;;;;15.87;12.47;;;12.80;92.80;;;;;;5013552;28;20177;-87
2023/06/10 04:31:47;;;;;;;19.63;13.00;;;12.90;92.80;;;;;;5012173;28;20553;-87
2023/06/10 04:34:13;;;;;;;19.70;12.33;;;13.00;92.90;;;;;;5012391;28;20204;-88
2023/06/10 04:36:38;;;;;;;20.97;12.13;;;13.00;92.80;;;;;;5013442;28;20268;-87
2023/06/10 04:39:05;;;;;;;15.80;13.00;;;13.10;92.90;;;;;;5013437;28;20284;-87
2023/06/10 04:41:31;;;;;;;20.07;13.30;;;13.20;92.80;;;;;;5012263;28;20178;-87
2023/06/10 04:43:57;;;;;;;16.37;12.17;;;13.20;92.80;;;;;;5012067;28;20177;-87
2023/06/10 04:46:24;;;;;;;17.43;12.23;;;13.30;92.90;;;;;;5013413;28;20181;-87
2023/06/10 04:48:49;;;;;;;17.83;11.70;;;13.30;92.90;;;;;;5012077;28;20188;-87
2023/06/10 04:51:16;;;;;;;25.33;11.10;;;13.40;93.00;;;;;;5013326;28;20181;-87
2023/06/10 04:53:42;;;;;;;15.07;10.87;;;13.60;93.00;;;;;;5013219;28;20189;-87
2023/06/10 04:56:07;;;;;;;22.47;9.93;;;13.70;93.10;;;;;;5013503;28;20173;-87
2023/06/10 04:58:33;;;;;;;14.40;9.20;;;13.80;93.10;;;;;;5013214;28;20212;-87
2023/06/10 05:00:59;;;;;;;15.90;9.60;;;13.90;93.00;;;;;;5012267;28;20182;-87
2023/06/10 05:03:25;;;;;;;15.27;8.70;;;14.00;92.90;;;;;;5011926;28;20284;-87
2023/06/10 05:05:51;;;;;;;20.50;9.07;;;14.10;92.90;;;;;;5011910;28;20264;-87
2023/06/10 05:08:16;;;;;;;16.07;7.77;;;14.20;92.60;;;;;;5013227;28;20612;-87
2023/06/10 05:10:42;;;;;;;19.97;8.37;;;14.20;92.40;;;;;;5013135;28;20259;-87
2023/06/10 05:13:07;;;;;;;15.83;7.73;;;14.30;92.10;;;;;;5012971;28;20208;-87
2023/06/10 05:15:33;;;;;;;9.53;7.23;;;14.30;91.70;;;;;;5011850;28;20196;-87
2023/06/10 05:17:58;;;;;;;13.77;7.43;;;14.50;91.40;;;;;;5013315;28;20539;-87
2023/06/10 05:20:25;;;;;;;15.47;6.73;;;14.60;91.30;;;;;;5013072;28;20170;-87
2023/06/10 05:22:50;;;;;;;11.30;6.80;;;14.70;91.20;;;;;;5013005;28;20212;-87
2023/06/10 05:25:16;;;;;;;14.13;6.67;;;14.80;90.90;;;;;;5013479;28;20631;-87
2023/06/10 05:27:42;;;;;;;13.40;6.63;;;14.80;90.60;;;;;;5015593;28;20192;-87
2023/06/10 05:30:10;;;;;;;16.13;6.50;;;14.80;90.30;;;;;;5016783;28;20260;-87
2023/06/10 05:32:35;;;;;;;13.70;6.70;;;14.80;89.60;;;;;;5015428;28;20205;-87
2023/06/10 05:35:01;;;;;;;12.83;6.87;;;14.90;89.50;;;;;;5017027;28;20169;-87
2023/06/10 05:37:26;;;;;;;14.83;6.77;;;14.80;89.00;;;;;;5016531;28;20189;-87
2023/06/10 05:39:52;;;;;;;14.23;6.50;;;15.00;89.20;;;;;;5015422;28;20201;-87
2023/06/10 05:42:18;;;;;;;11.87;5.97;;;15.00;89.20;;;;;;5016626;28;20664;-87
2023/06/10 05:44:43;;;;;;;9.63;6.37;;;15.00;89.20;;;;;;5015405;28;20204;-88
2023/06/10 05:47:09;;;;;;;10.30;5.60;;;15.10;89.40;;;;;;5016439;28;20643;-87
2023/06/10 05:49:34;;;;;;;7.37;5.17;;;15.20;88.90;;;;;;5015194;28;20181;-87
2023/06/10 05:52:00;;;;;;;9.87;5.70;;;15.20;88.60;;;;;;5015091;28;20193;-87
2023/06/10 05:54:26;;;;;;;10.97;6.17;;;15.20;88.20;;;;;;5015051;28;20188;-87
2023/06/10 05:56:52;;;;;;;14.07;5.57;;;15.30;88.20;;;;;;5016239;28;20680;-87
2023/06/10 05:59:17;;;;;;;13.67;6.10;;;15.40;87.40;;;;;;5016536;28;20197;-87
2023/06/10 06:01:43;;;;;;;9.83;5.07;;;15.50;87.40;;;;;;5016280;28;20165;-87
2023/06/10 06:04:08;;;;;;;10.37;4.97;;;15.70;87.40;;;;;;5015012;28;20177;-86
2023/06/10 06:06:35;;;;;;;7.50;5.63;;;15.80;86.00;;;;;;5016344;28;20260;-86
2023/06/10 06:09:01;;;;;;;16.15;5.93;;;15.70;85.20;;;;;;5016417;28;20547;-87
2023/06/10 06:11:26;;;;;;;12.67;6.03;;;15.70;85.40;;;;;;5015131;28;20189;-87
2023/06/10 06:13:52;;;;;;;16.98;5.70;;;15.60;85.20;;;;;;5015927;28;20300;-87
2023/06/10 06:16:18;;;;;;;8.97;5.33;;;15.70;85.50;;;;;;5015919;28;20177;-87
2023/06/10 06:18:44;;;;;;;9.67;5.10;;;15.90;85.30;;;;;;5015004;28;20675;-87
2023/06/10 06:21:09;;;;;;;11.27;6.28;;;15.90;85.00;;;;;;5015885;28;20169;-87
2023/06/10 06:23:35;;;;;;;9.45;6.18;;;15.90;84.60;;;;;;5015817;28;20223;-87
2023/06/10 06:26:00;;;;;;;10.98;5.43;;;16.00;84.70;;;;;;5016091;28;20173;-87
2023/06/10 06:28:28;;;;;;;14.55;6.60;;;16.10;84.80;;;;;;5014535;28;20273;-87
2023/06/10 06:30:55;;;;;;;16.50;6.22;;;16.10;83.60;;;;;;5015670;28;20208;-87
2023/06/10 06:33:20;;;;;;;10.35;6.38;;;16.10;84.00;;;;;;5014263;28;20205;-87
2023/06/10 06:35:46;;;;;;;10.85;5.93;;;16.20;83.50;;;;;;5015676;28;20551;-87
2023/06/10 06:38:12;;;;;;;12.57;5.90;;;16.20;83.50;;;;;;5014911;28;20197;-87
2023/06/10 06:40:37;;;;;;;11.52;6.65;;;16.30;83.60;;;;;;5015597;28;20205;-87
2023/06/10 06:43:03;;;;;;;10.57;6.13;;;16.30;82.50;;;;;;5014194;28;20216;-86
2023/06/10 06:45:28;;;;;;;11.98;6.20;;;16.30;82.30;;;;;;5014199;28;20211;-86
2023/06/10 06:47:55;;;;;;;12.18;6.05;;;16.30;81.90;;;;;;5015387;28;20169;-87
2023/06/10 06:50:21;;;;;;;9.27;6.47;;;16.50;82.10;;;;;;5014128;28;20600;-87
2023/06/10 06:52:46;;;;;;;11.25;6.60;;;16.80;81.90;;;;;;5015156;28;20189;-87
2023/06/10 06:55:12;;;;;;;18.27;7.03;;;17.00;81.10;;;;;;5014019;28;20636;-87
2023/06/10 06:57:37;;;;;;;12.18;6.95;;;17.30;81.10;;;;;;5015128;28;20170;-87
2023/06/10 07:00:04;;;;;;;10.98;7.10;;;17.60;79.90;;;;;;5015287;28;20201;-87
2023/06/10 07:02:31;;;;;;;14.02;7.97;;;17.80;78.80;;;;;;5013687;28;20197;-87
2023/06/10 07:04:58;;;;;;;10.57;7.35;;;17.90;77.80;;;;;;5013847;28;20705;-87
2023/06/10 07:07:24;;;;;;;12.07;8.07;;;17.90;76.90;;;;;;5014836;28;20169;-87
2023/06/10 07:09:50;;;;;;;10.38;6.97;;;18.00;76.40;;;;;;5014896;28;20169;-87
2023/06/10 07:12:15;;;;;;;8.57;7.43;;;18.10;77.10;;;;;;5014910;28;20201;-86
2023/06/10 07:14:41;;;;;;;9.40;7.20;;;18.00;76.30;;;;;;5014861;28;20184;-87
2023/06/10 07:17:07;;;;;;;10.68;7.75;;;17.90;76.50;;;;;;5013604;28;20280;-87
2023/06/10 07:19:32;;;;;;;9.50;6.93;;;17.80;77.10;;;;;;5013319;28;20248;-87
2023/06/10 07:21:58;;;;;;;13.07;7.45;;;17.80;76.80;;;;;;5014634;28;20221;-87
2023/06/10 07:24:24;;;;;;;10.55;8.02;;;17.90;77.10;;;;;;5013540;28;20198;-87
2023/06/10 07:26:50;;;;;;;12.95;7.65;;;17.90;76.50;;;;;;5013216;28;20177;-87
2023/06/10 07:29:15;;;;;;;11.27;6.90;;;18.00;76.60;;;;;;5014812;28;20182;-87
2023/06/10 07:31:41;;;;;;;11.95;8.13;;;18.10;76.50;;;;;;5014232;28;20670;-86
2023/06/10 07:34:06;;;;;;;21.70;7.75;;;18.20;76.40;;;;;;5014430;28;20181;-87
2023/06/10 07:36:32;;;;;;;13.00;7.80;;;18.20;76.10;;;;;;5013575;28;20193;-87
2023/06/10 07:38:58;;;;;;;11.48;7.45;;;18.30;75.70;;;;;;5013105;28;20630;-87
2023/06/10 07:41:25;;;;;;;12.65;7.40;;;18.30;75.70;;;;;;5013259;28;20174;-87
2023/06/10 07:43:54;;;;;;;11.05;7.40;;;18.30;75.70;;;;;;5013003;28;20204;-87
2023/06/10 07:46:21;;;;;;;10.68;6.90;;;18.30;75.50;;;;;;5014286;28;20174;-87
2023/06/10 07:48:47;;;;;;;10.10;7.75;;;18.60;76.00;;;;;;5012866;28;20184;-87
2023/06/10 07:51:12;;;;;;;11.57;8.02;;;18.60;75.30;;;;;;5012953;28;20177;-87
2023/06/10 07:53:38;;;;;;;13.15;7.40;;;18.80;74.80;;;;;;5012845;28;20679;-87
2023/06/10 07:56:04;;;;;;;15.43;8.45;;;18.70;75.00;;;;;;5014139;28;20174;-87
2023/06/10 07:58:29;;;;;;;15.02;8.18;;;18.80;74.00;;;;;;5012746;28;20208;-87
2023/06/10 08:00:55;;;;;;;14.23;7.68;;;18.80;74.20;;;;;;5014296;28;20170;-88
2023/06/10 08:03:20;;;;;;;16.73;8.35;;;18.90;74.10;;;;;;5012576;28;20247;-87
2023/06/10 08:05:46;;;;;;;13.20;8.63;;;19.00;74.10;;;;;;5012689;28;20169;-87
2023/06/10 08:08:13;;;;;;;14.30;7.82;;;19.10;73.90;;;;;;5014041;28;20181;-87
2023/06/10 08:10:39;;;;;;;13.93;8.13;;;19.10;73.40;;;;;;5012690;28;20181;-87
2023/06/10 08:13:04;;;;;;;10.93;7.78;;;19.10;73.00;;;;;;5012421;28;20223;-88
2023/06/10 08:15:30;;;;;;;11.45;7.68;;;19.10;73.20;;;;;;5012767;28;20180;-87
2023/06/10 08:17:56;;;;;;;12.88;7.57;;;19.30;73.80;;;;;;5012667;28;20185;-87
2023/06/10 08:20:22;;;;;;;13.50;8.93;;;19.50;73.30;;;;;;5014675;28;20165;-87
2023/06/10 08:22:47;;;;;;;15.23;7.50;;;19.60;72.20;;;;;;5014037;28;20193;-87
2023/06/10 08:25:13;;;;;;;12.80;8.98;;;19.70;72.10;;;;;;5014502;28;20177;-87
2023/06/10 08:27:39;;;;;;;14.23;8.65;;;19.80;70.60;;;;;;5012339;28;20181;-88
2023/06/10 08:30:05;;;;;;;9.77;8.23;;;19.90;71.90;;;;;;5013604;28;20169;-87
2023/06/10 08:32:30;;;;;;;10.43;8.00;;;20.00;71.00;;;;;;5013239;28;20204;-87
2023/06/10 08:34:56;;;;;;;9.55;8.07;;;20.00;71.40;;;;;;5013461;28;20176;-87
2023/06/10 08:37:22;;;;;;;13.13;7.95;;;20.10;71.00;;;;;;5013440;28;20177;-87
2023/06/10 08:39:47;;;;;;;14.18;9.18;;;20.20;71.40;;;;;;5013391;28;20574;-87
2023/06/10 08:42:30;;;;;;;13.77;8.40;;;20.20;69.90;;;;;;5013658;28;20236;-87
2023/06/10 08:44:56;;;;;;;13.45;8.73;;;20.30;69.80;;;;;;5013597;28;20173;-87
2023/06/10 08:47:24;;;;;;;11.77;8.68;;;20.40;69.80;;;;;;5013264;28;20204;-87
2023/06/10 08:49:52;;;;;;;12.07;9.55;;;20.60;70.40;;;;;;5013382;28;20178;-87
2023/06/10 08:52:19;;;;;;;14.38;9.85;;;20.70;69.40;;;;;;5013242;28;20192;-87
2023/06/10 08:54:54;;;;;;;16.83;10.80;;;20.60;69.10;;;;;;5013608;28;20603;-87
2023/06/10 08:57:21;;;;;;;17.48;10.40;;;20.70;68.70;;;;;;5013185;28;20662;-87
2023/06/10 08:59:48;;;;;;;16.33;10.23;;;20.70;68.40;;;;;;5013421;28;20197;-87
2023/06/10 09:02:14;;;;;;;11.70;10.48;;;20.70;69.40;;;;;;5015040;28;20193;-87
2023/06/10 09:04:43;;;;;;;16.95;9.88;;;20.70;68.70;;;;;;5015979;28;20264;-88
2023/06/10 09:07:09;;;;;;;18.10;10.15;;;20.80;69.60;;;;;;5015863;28;20651;-87
2023/06/10 09:09:35;;;;;;;14.75;10.55;;;20.80;68.10;;;;;;5017071;28;20192;-87
2023/06/10 09:12:00;;;;;;;15.95;11.13;;;20.80;67.60;;;;;;5017139;28;20260;-87
2023/06/10 09:14:26;;;;;;;12.68;10.93;;;21.00;67.60;;;;;;5017151;28;20207;-87
2023/06/10 09:16:56;;;;;;;18.65;10.88;;;21.00;67.60;;;;;;5015802;28;20671;-88
2023/06/10 09:19:22;;;;;;;19.17;10.18;;;21.10;67.40;;;;;;5015736;28;20284;-87
2023/06/10 09:21:48;;;;;;;13.07;11.48;;;21.40;68.70;;;;;;5015604;28;20204;-87
2023/06/10 09:24:14;;;;;;;12.98;11.65;;;21.30;65.70;;;;;;5016077;28;20594;-87
2023/06/10 09:26:40;;;;;;;13.77;12.40;;;21.40;66.70;;;;;;5015710;28;20592;-87
2023/06/10 09:29:08;;;;;;;14.15;12.75;;;21.50;65.30;;;;;;5015609;28;20184;-87
2023/06/10 09:31:35;;;;;;;16.30;12.23;;;21.50;65.40;;;;;;5015418;28;20659;-87
2023/06/10 09:34:11;;;;;;;13.95;12.13;;;21.50;66.10;;;;;;5015530;28;20328;-87
2023/06/10 09:36:37;;;;;;;15.20;13.65;;;21.80;66.50;;;;;;5016681;28;20593;-87
2023/06/10 09:39:03;;;;;;;18.17;13.90;;;21.80;64.40;;;;;;5015373;28;20223;-86
2023/06/10 09:41:39;;;;;;;15.13;13.38;;;21.70;64.50;;;;;;5016573;28;20664;-87
2023/06/10 09:44:14;;;;;;;15.43;13.85;;;21.90;65.20;;;;;;5016731;28;20682;-87
2023/06/10 09:46:41;;;;;;;15.43;13.98;;;22.10;64.90;;;;;;5016534;28;20273;-87
2023/06/10 09:49:06;;;;;;;15.73;14.30;;;22.20;64.70;;;;;;5015156;28;20269;-87
2023/06/10 09:51:32;;;;;;;17.77;15.40;;;22.10;64.20;;;;;;5015226;28;20208;-87
2023/06/10 09:53:59;;;;;;;16.63;14.98;;;22.00;65.20;;;;;;5016526;28;20173;-87
2023/06/10 09:56:37;;;;;;;18.55;16.70;;;22.10;65.20;;;;;;5016265;28;20228;-87
2023/06/10 09:59:05;;;;;;;17.90;16.08;;;22.20;63.40;;;;;;5014954;28;20709;-87
2023/06/10 10:01:33;;;;;;;20.20;16.45;;;22.40;64.90;;;;;;5016228;28;20173;-87
2023/06/10 10:03:58;;;;;;;16.88;15.02;;;22.40;64.80;;;;;;5015021;28;20531;-87
2023/06/10 10:06:25;;;;;;;18.65;16.73;;;22.70;65.70;;;;;;5014875;28;20204;-87
2023/06/10 10:08:51;;;;;;;18.20;16.60;;;22.70;64.00;;;;;;5016086;28;20177;-87
2023/06/10 10:11:18;;;;;;;19.15;17.33;;;22.70;64.20;;;;;;5014807;28;20565;-87
2023/06/10 10:13:46;;;;;;;17.52;15.77;;;22.60;62.70;;;;;;5014569;28;20220;-87
2023/06/10 10:16:16;;;;;;;21.05;16.60;;;22.70;63.10;;;;;;5015927;28;20181;-87
2023/06/10 10:18:46;;;;;;;18.67;16.85;;;22.70;63.10;;;;;;5015845;28;20193;-87
2023/06/10 10:21:15;;;;;;;17.67;15.93;;;22.60;63.80;;;;;;5014656;28;20755;-87
2023/06/10 10:24:07;;;;;;;17.55;16.02;;;22.90;64.80;;;;;;5014444;28;20208;-88
2023/06/10 10:26:34;;;;;;;18.92;16.90;;;23.10;63.80;;;;;;5015875;28;20522;-88
2023/06/10 10:29:30;;;;;;;18.27;16.52;;;23.10;63.00;;;;;;5014406;28;20656;-87
2023/06/10 10:32:01;;;;;;;20.38;16.73;;;23.40;62.40;;;;;;5015080;28;20223;-87
2023/06/10 10:34:54;;;;;;;20.63;17.33;;;23.20;61.30;;;;;;5014368;28;20550;-88
2023/06/10 10:37:20;;;;;;;18.55;16.80;;;23.30;62.70;;;;;;5015223;28;20193;-87
2023/06/10 10:39:46;;;;;;;19.02;17.20;;;23.40;61.20;;;;;;5015394;28;20545;-87
2023/06/10 10:42:12;;;;;;;20.33;15.85;;;23.60;63.60;;;;;;5014217;28;20193;-87
2023/06/10 10:44:38;;;;;;;18.38;16.55;;;23.60;60.70;;;;;;5015269;28;20181;-87
2023/06/10 10:47:09;;;;;;;17.85;16.20;;;23.70;62.30;;;;;;5015386;28;20173;-87
2023/06/10 10:49:36;;;;;;;24.58;16.40;;;23.70;60.90;;;;;;5015120;28;20212;-87
2023/06/10 10:52:05;;;;;;;17.48;15.77;;;23.60;60.10;;;;;;5015530;28;20212;-87
2023/06/10 10:54:32;;;;;;;18.45;16.70;;;23.70;60.50;;;;;;5014089;28;20208;-88
2023/06/10 10:57:10;;;;;;;20.08;16.00;;;23.80;61.20;;;;;;5015142;28;20204;-87
2023/06/10 10:59:48;;;;;;;18.98;17.08;;;24.00;60.60;;;;;;5013808;28;20698;-87
2023/06/10 11:02:33;;;;;;;18.33;16.45;;;24.00;61.00;;;;;;5013743;28;20193;-87
2023/06/10 11:05:00;;;;;;;18.95;17.02;;;24.00;60.60;;;;;;5015000;28;20184;-87
2023/06/10 11:07:25;;;;;;;19.08;17.27;;;24.10;59.90;;;;;;5014987;28;20165;-87
2023/06/10 11:10:07;;;;;;;18.27;16.65;;;24.20;60.90;;;;;;5014964;28;20177;-87
2023/06/10 11:12:54;;;;;;;17.67;16.38;;;24.20;60.00;;;;;;5013639;28;20710;-87
2023/06/10 11:15:28;;;;;;;18.45;16.60;;;24.40;58.30;;;;;;5015155;28;20161;-87
2023/06/10 11:18:13;;;;;;;18.60;16.80;;;24.40;57.10;;;;;;5014755;28;20605;-87
2023/06/10 11:20:50;;;;;;;19.30;17.60;;;24.50;59.00;;;;;;5014681;28;20668;-87
2023/06/10 11:23:28;;;;;;;20.45;16.98;;;24.60;58.30;;;;;;5014537;28;20243;-87
2023/06/10 11:26:17;;;;;;;18.85;16.73;;;24.60;58.00;;;;;;5014290;28;20172;-87
2023/06/10 11:28:46;;;;;;;19.75;17.80;;;24.70;58.40;;;;;;5013356;28;20671;-86
2023/06/10 11:31:22;;;;;;;18.00;16.17;;;24.60;59.60;;;;;;5013263;28;20177;-87
2023/06/10 11:33:51;;;;;;;16.17;14.73;;;24.60;59.30;;;;;;5014607;28;20204;-87
2023/06/10 11:36:17;;;;;;;16.02;14.57;;;24.60;56.70;;;;;;5014474;28;20165;-87
2023/06/10 11:38:43;;;;;;;15.98;14.45;;;24.70;56.90;;;;;;5013112;28;20208;-87
2023/06/10 11:41:08;;;;;;;17.58;15.00;;;24.70;57.90;;;;;;5014299;28;20530;-87
2023/06/10 11:43:34;;;;;;;18.73;14.60;;;24.90;58.00;;;;;;5012995;28;20204;-86
2023/06/10 11:46:01;;;;;;;19.77;15.50;;;25.00;57.20;;;;;;5014364;28;20181;-87
2023/06/10 11:48:30;;;;;;;16.60;15.00;;;25.10;57.10;;;;;;5012989;28;20185;-86
2023/06/10 11:50:55;;;;;;;16.38;15.00;;;25.20;57.90;;;;;;5014125;28;20193;-87
2023/06/10 11:53:21;;;;;;;17.23;14.50;;;25.30;57.50;;;;;;5014316;28;20225;-86
2023/06/10 11:55:48;;;;;;;16.52;15.00;;;25.20;56.90;;;;;;5014408;28;20697;-87
2023/06/10 11:58:21;;;;;;;17.85;15.52;;;25.20;57.80;;;;;;5012738;28;20212;-87
2023/06/10 12:00:48;;;;;;;15.93;14.43;;;25.30;57.00;;;;;;5012745;28;20162;-87
2023/06/10 12:03:14;;;;;;;15.07;13.65;;;25.30;55.40;;;;;;5012585;28;20205;-87
2023/06/10 12:05:40;;;;;;;15.98;14.45;;;25.20;55.70;;;;;;5013368;28;20173;-87
2023/06/10 12:08:10;;;;;;;16.00;14.52;;;25.20;56.90;;;;;;5012655;28;20178;-86
2023/06/10 12:10:42;;;;;;;18.30;14.85;;;25.30;57.20;;;;;;5012635;28;20177;-86
2023/06/10 12:13:09;;;;;;;16.27;14.27;;;25.20;56.80;;;;;;5012458;28;20255;-86
2023/06/10 12:15:35;;;;;;;19.25;16.98;;;25.50;56.90;;;;;;5012442;28;20173;-87
2023/06/10 12:18:02;;;;;;;18.17;16.30;;;25.60;55.60;;;;;;5013624;28;20172;-87
2023/06/10 12:20:29;;;;;;;19.52;16.50;;;25.70;55.80;;;;;;5012500;28;20173;-87
2023/06/10 12:22:55;;;;;;;17.48;16.05;;;25.60;56.20;;;;;;5013620;28;20247;-87
2023/06/10 12:25:30;;;;;;;18.95;16.95;;;25.60;56.90;;;;;;5013588;28;20173;-87
2023/06/10 12:27:58;;;;;;;20.55;17.10;;;25.70;55.60;;;;;;5012414;28;20177;-87
2023/06/10 12:30:26;;;;;;;17.85;16.25;;;25.50;53.60;;;;;;5013537;28;20181;-87
2023/06/10 12:32:52;;;;;;;19.25;16.88;;;25.70;55.30;;;;;;5013503;28;20240;-87